This is the latest recevied weather packets stored in our database for station/object HS2GJW-1. If no packets are shown the sender has not sent any weather packets the latest 1 day(s).
| Time | Temp. | Humidity | Pressure | Rain* | Wind** | Luminosity | Snow |
|---|---|---|---|---|---|---|---|
| 1778070617 | 30.56° C | 93% | 1007 hPa | - | - | 0 W/m² | - |
| 1778063475 | 34.44° C | 70% | 1006 hPa | - | - | 0 W/m² | - |
| 1778062851 | 34.44° C | 71% | 1005 hPa | - | - | 0 W/m² | - |
| 1778060975 | 34.44° C | 69% | 1006 hPa | - | - | 0 W/m² | - |
| 1778059726 | 35° C | 71% | 1006 hPa | - | - | 0 W/m² | - |
| 1778059101 | 35° C | 72% | 1005 hPa | - | - | 0 W/m² | - |
| 1778058476 | 35.56° C | 71% | 1005 hPa | - | - | 0 W/m² | - |
| 1778057852 | 36.67° C | 65% | 1005 hPa | - | - | 0 W/m² | - |
| 1778056602 | 37.22° C | 66% | 1005 hPa | - | - | 0 W/m² | - |
| 1778055978 | 37.22° C | 69% | 1006 hPa | - | - | 0 W/m² | - |
| 1778055353 | 37.22° C | 66% | 1006 hPa | - | - | 0 W/m² | - |
| 1778052855 | 37.22° C | 57% | 1006 hPa | - | - | 0 W/m² | - |
| 1778052231 | 37.78° C | 58% | 1006 hPa | - | - | 0 W/m² | - |
| 1778051607 | 37.22° C | 60% | 1006 hPa | - | - | 0 W/m² | - |
| 1778049735 | 36.67° C | 59% | 1007 hPa | - | - | 0 W/m² | - |
| 1778049111 | 36.67° C | 59% | 1008 hPa | - | - | 0 W/m² | - |
| 1778048487 | 37.22° C | 64% | 1008 hPa | - | - | 0 W/m² | - |
| 1778047863 | 36.67° C | 67% | 1008 hPa | - | - | 0 W/m² | - |
| 1778047239 | 36.67° C | 67% | 1008 hPa | - | - | 0 W/m² | - |
| 1778028524 | 30° C | 99% | 1010 hPa | - | - | 0 W/m² | - |
| 1778027898 | 30° C | 99% | 1010 hPa | - | - | 0 W/m² | - |
| 1778027273 | 30° C | 99% | 1010 hPa | - | - | 0 W/m² | - |
| 1778026648 | 29.44° C | 99% | 1010 hPa | - | - | 0 W/m² | - |
| 1778023511 | 28.33° C | 99% | 1009 hPa | - | - | 0 W/m² | - |
* Rain since midnight (hover to see other rain measurements)
** Current wind speed in m/s (hover to see current wind gust speed)